HMO weather

General Ignacio P. Garcia International Airport
Hermosillo, Sonora, Mexico

Public forecast

Using degrees Celsius for public forecast. Weather courtesy of forecast.io.

Current aviation weather report (METAR) for General Ignacio P. Garcia International Airport

Retrieved 2019/11/13 10:51 UTC (22 minutes ago):

MMHO 131051Z 09005KT 10SM SCT080 22/08 A2993 RMK 8/030 HZY

Aviation forecast (TAF) for General Ignacio P. Garcia International Airport

Retrieved 2019/11/13 06:55 UTC (4 hours ago):

TAF MMHO 130448Z 1306/1406 00000KT P6SM SCT080 FM131800 20010KT P6SM SCT040 SCT080 FM140300 23005KT 6SM HZ SCT080